weather.gov     
National Weather Service

Terminal Aerodrome Forecast
NWS Homepage
This page is being discontinued on March 12, 2014.
The same data is available at this site. Please update your bookmarks.
Thank you, and we apologize for the inconvenience.
Please send an email to SR-SRH.Webmaster@noaa.gov with any concerns.


Current Version
Previous Version:    01  02  03  04  05  06  07  08  09  10  11  12  13  14  15  16  17  18  19  20  21  22  23  24  25  26  27  
[Printable]
241
FTUS45 KRIW 160500
TAFCPR
TAF
KCPR 160523Z 1606/1706 36015G25KT 5SM -SN SCT012 OVC025
      TEMPO 1606/1608 2SM -SN BKN012
     FM160800 04010KT P6SM VCSH SCT012 OVC025
     FM161100 28010KT P6SM FEW050 SCT100
     FM161600 30011KT P6SM SCT060
     FM162200 35011KT P6SM VCSH SCT050 BKN080
     FM170400 VRB05KT P6SM SCT090 BKN150=


U.S. Dept. of Commerce
NOAA National Weather Service
1325 East West Highway
Silver Spring, MD 20910
E-mail: w-nws.webmaster@noaa.gov
Page last modified: May 16, 2007
NATIONAL WEATHER SERVICE: for Safety, for Work, for Fun - FOR LIFE